sensor_id;sensor_type;location;lat;lon;timestamp;pressure;altitude;pressure_sealevel;temperature;humidity
39301;BME280;25019;42.626;23.380;2023-05-23T09:27:16;94254.69;;;19.21;82.73
39301;BME280;25019;42.626;23.380;2023-05-23T09:37:17;94240.03;;;19.59;72.33
39301;BME280;25019;42.626;23.380;2023-05-23T09:39:46;94257.97;;;19.72;70.55
39301;BME280;25019;42.626;23.380;2023-05-23T09:42:21;94255.28;;;19.72;71.28
39301;BME280;25019;42.626;23.380;2023-05-23T09:44:49;94247.06;;;19.77;69.95
39301;BME280;25019;42.626;23.380;2023-05-23T09:47:16;94259.06;;;19.94;69.08
39301;BME280;25019;42.626;23.380;2023-05-23T09:49:45;94241.84;;;20.04;69.46
39301;BME280;25019;42.626;23.380;2023-05-23T09:52:12;94247.59;;;20.20;62.24
39301;BME280;25019;42.626;23.380;2023-05-23T09:54:41;94192.56;;;19.81;59.84
39301;BME280;25019;42.626;23.380;2023-05-23T09:57:09;94155.44;;;19.60;58.11
39301;BME280;25019;42.626;23.380;2023-05-23T09:59:40;94238.22;;;20.17;60.14
39301;BME280;25019;42.626;23.380;2023-05-23T10:02:10;94242.84;;;20.26;60.21
39301;BME280;25019;42.626;23.380;2023-05-23T10:04:38;94233.31;;;20.28;58.92
39301;BME280;25019;42.626;23.380;2023-05-23T10:07:17;94232.41;;;20.42;59.86
39301;BME280;25019;42.626;23.380;2023-05-23T10:09:53;94166.03;;;20.05;58.14
39301;BME280;25019;42.626;23.380;2023-05-23T10:15:06;94157.66;;;20.25;60.43
39301;BME280;25019;42.626;23.380;2023-05-23T10:20:24;94196.88;;;20.48;57.61
39301;BME280;25019;42.626;23.380;2023-05-23T10:22:53;94227.09;;;20.77;59.72
39301;BME280;25019;42.626;23.380;2023-05-23T10:25:19;94214.97;;;20.65;56.95
39301;BME280;25019;42.626;23.380;2023-05-23T10:27:47;94198.31;;;20.63;56.30
39301;BME280;25019;42.626;23.380;2023-05-23T10:30:14;94202.47;;;20.78;55.23
39301;BME280;25019;42.626;23.380;2023-05-23T10:32:41;94223.59;;;21.03;54.39
39301;BME280;25019;42.626;23.380;2023-05-23T10:43:17;94201.81;;;21.08;57.43
39301;BME280;25019;42.626;23.380;2023-05-23T10:45:45;94185.00;;;20.85;51.63
39301;BME280;25019;42.626;23.380;2023-05-23T10:48:22;94138.16;;;20.45;49.91
39301;BME280;25019;42.626;23.380;2023-05-23T10:51:10;94197.06;;;20.87;46.79
39301;BME280;25019;42.626;23.380;2023-05-23T10:53:37;94205.47;;;20.94;48.54
39301;BME280;25019;42.626;23.380;2023-05-23T10:56:04;94206.91;;;20.92;49.47
39301;BME280;25019;42.626;23.380;2023-05-23T10:58:32;94194.69;;;20.86;49.53
39301;BME280;25019;42.626;23.380;2023-05-23T11:01:06;94197.25;;;20.91;49.76
39301;BME280;25019;42.626;23.380;2023-05-23T11:03:34;94194.66;;;21.03;48.32
39301;BME280;25019;42.626;23.380;2023-05-23T11:06:01;94197.06;;;21.14;50.69
39301;BME280;25019;42.626;23.380;2023-05-23T11:08:35;94192.13;;;21.16;48.71
39301;BME280;25019;42.626;23.380;2023-05-23T11:11:02;94187.03;;;21.14;50.71
39301;BME280;25019;42.626;23.380;2023-05-23T11:13:54;94182.38;;;21.32;49.75
39301;BME280;25019;42.626;23.380;2023-05-23T11:16:27;94176.97;;;21.41;48.25
39301;BME280;25019;42.626;23.380;2023-05-23T11:22:02;94177.78;;;21.24;47.37
39301;BME280;25019;42.626;23.380;2023-05-23T11:24:50;94172.13;;;21.17;46.09
39301;BME280;25019;42.626;23.380;2023-05-23T11:27:17;94184.31;;;21.32;46.74
39301;BME280;25019;42.626;23.380;2023-05-23T11:32:34;94170.78;;;21.40;46.71
39301;BME280;25019;42.626;23.380;2023-05-23T11:35:02;94181.88;;;21.39;46.62
39301;BME280;25019;42.626;23.380;2023-05-23T11:37:29;94183.16;;;21.42;47.12
39301;BME280;25019;42.626;23.380;2023-05-23T11:39:55;94149.34;;;21.35;46.31
39301;BME280;25019;42.626;23.380;2023-05-23T11:42:21;94124.00;;;21.19;45.04
39301;BME280;25019;42.626;23.380;2023-05-23T11:44:51;94169.06;;;21.27;44.99
39301;BME280;25019;42.626;23.380;2023-05-23T11:47:17;94169.69;;;21.24;44.91
39301;BME280;25019;42.626;23.380;2023-05-23T11:49:46;94038.88;;;20.39;48.16
39301;BME280;25019;42.626;23.380;2023-05-23T11:52:12;94164.94;;;21.30;47.14
39301;BME280;25019;42.626;23.380;2023-05-23T11:54:42;94107.00;;;21.09;45.95
39301;BME280;25019;42.626;23.380;2023-05-23T11:57:08;94093.53;;;20.92;45.76
39301;BME280;25019;42.626;23.380;2023-05-23T11:59:34;94063.25;;;20.86;45.83
39301;BME280;25019;42.626;23.380;2023-05-23T12:02:01;94154.00;;;21.65;47.05
39301;BME280;25019;42.626;23.380;2023-05-23T12:04:27;94097.41;;;21.30;45.79
39301;BME280;25019;42.626;23.380;2023-05-23T12:06:53;94152.59;;;21.67;44.57
39301;BME280;25019;42.626;23.380;2023-05-23T12:09:19;94141.41;;;21.78;44.84
39301;BME280;25019;42.626;23.380;2023-05-23T12:11:48;94073.19;;;21.42;45.39
39301;BME280;25019;42.626;23.380;2023-05-23T12:14:16;94144.31;;;21.73;44.23
39301;BME280;25019;42.626;23.380;2023-05-23T12:16:43;94119.88;;;21.51;45.80
39301;BME280;25019;42.626;23.380;2023-05-23T12:19:13;94132.28;;;21.52;44.87
39301;BME280;25019;42.626;23.380;2023-05-23T12:21:44;94127.09;;;21.77;45.50
39301;BME280;25019;42.626;23.380;2023-05-23T12:24:20;94130.44;;;22.04;45.91
39301;BME280;25019;42.626;23.380;2023-05-23T12:26:53;94128.69;;;22.08;44.85
39301;BME280;25019;42.626;23.380;2023-05-23T12:29:30;94121.56;;;21.74;44.65
39301;BME280;25019;42.626;23.380;2023-05-23T12:31:57;94100.13;;;21.68;44.27
39301;BME280;25019;42.626;23.380;2023-05-23T12:34:23;94116.19;;;21.65;44.01
39301;BME280;25019;42.626;23.380;2023-05-23T12:36:49;94117.22;;;21.81;43.17
39301;BME280;25019;42.626;23.380;2023-05-23T12:39:23;94114.25;;;21.74;44.38
39301;BME280;25019;42.626;23.380;2023-05-23T12:41:51;94111.34;;;21.79;44.08
39301;BME280;25019;42.626;23.380;2023-05-23T12:44:17;94068.22;;;21.53;44.97
39301;BME280;25019;42.626;23.380;2023-05-23T12:46:42;94018.16;;;21.25;44.74
39301;BME280;25019;42.626;23.380;2023-05-23T12:49:08;94096.38;;;21.82;44.10
39301;BME280;25019;42.626;23.380;2023-05-23T12:51:34;94103.00;;;21.93;43.85
39301;BME280;25019;42.626;23.380;2023-05-23T12:54:00;94095.69;;;21.94;43.34
39301;BME280;25019;42.626;23.380;2023-05-23T12:56:26;94043.88;;;21.62;42.84
39301;BME280;25019;42.626;23.380;2023-05-23T12:58:52;94085.28;;;22.05;43.25
39301;BME280;25019;42.626;23.380;2023-05-23T13:01:19;94034.56;;;21.80;43.32
39301;BME280;25019;42.626;23.380;2023-05-23T13:03:44;94072.19;;;22.15;41.26
39301;BME280;25019;42.626;23.380;2023-05-23T13:06:10;94085.66;;;22.37;40.18
39301;BME280;25019;42.626;23.380;2023-05-23T13:08:36;94067.94;;;22.48;39.56
39301;BME280;25019;42.626;23.380;2023-05-23T13:11:02;94081.00;;;22.67;39.74
39301;BME280;25019;42.626;23.380;2023-05-23T13:13:27;94073.56;;;22.77;39.09
39301;BME280;25019;42.626;23.380;2023-05-23T13:15:55;94072.22;;;22.70;39.99
39301;BME280;25019;42.626;23.380;2023-05-23T13:18:20;94067.88;;;22.57;37.24
39301;BME280;25019;42.626;23.380;2023-05-23T13:20:46;94068.00;;;22.39;38.21
39301;BME280;25019;42.626;23.380;2023-05-23T13:23:12;94015.59;;;22.10;37.24
39301;BME280;25019;42.626;23.380;2023-05-23T13:25:37;94051.25;;;22.25;36.34
39301;BME280;25019;42.626;23.380;2023-05-23T13:28:03;94076.25;;;22.43;36.43
39301;BME280;25019;42.626;23.380;2023-05-23T13:30:30;94025.78;;;22.26;36.10
39301;BME280;25019;42.626;23.380;2023-05-23T13:32:56;94076.06;;;22.82;36.33
39301;BME280;25019;42.626;23.380;2023-05-23T13:35:21;94043.09;;;22.67;37.30
39301;BME280;25019;42.626;23.380;2023-05-23T13:37:47;94079.75;;;22.98;37.90
39301;BME280;25019;42.626;23.380;2023-05-23T13:40:18;94063.44;;;22.86;37.41
39301;BME280;25019;42.626;23.380;2023-05-23T13:42:46;94077.69;;;22.95;37.64
39301;BME280;25019;42.626;23.380;2023-05-23T13:45:12;94084.34;;;22.85;37.71
39301;BME280;25019;42.626;23.380;2023-05-23T13:47:38;94074.03;;;22.79;36.88
39301;BME280;25019;42.626;23.380;2023-05-23T13:50:04;94012.53;;;22.33;38.09
39301;BME280;25019;42.626;23.380;2023-05-23T13:52:29;94029.59;;;22.25;38.40
39301;BME280;25019;42.626;23.380;2023-05-23T13:54:55;94085.78;;;22.49;37.79
39301;BME280;25019;42.626;23.380;2023-05-23T13:57:21;94085.31;;;22.47;37.64
39301;BME280;25019;42.626;23.380;2023-05-23T13:59:46;94056.72;;;22.37;38.34
39301;BME280;25019;42.626;23.380;2023-05-23T14:02:13;94038.16;;;22.14;36.91
39301;BME280;25019;42.626;23.380;2023-05-23T14:04:38;94077.19;;;22.47;36.91
39301;BME280;25019;42.626;23.380;2023-05-23T14:07:04;94075.97;;;22.57;35.67
39301;BME280;25019;42.626;23.380;2023-05-23T14:09:30;94057.63;;;22.63;36.14
39301;BME280;25019;42.626;23.380;2023-05-23T14:11:55;94067.06;;;22.90;34.69
39301;BME280;25019;42.626;23.380;2023-05-23T14:14:21;94042.56;;;22.74;35.00
39301;BME280;25019;42.626;23.380;2023-05-23T14:16:49;94073.72;;;22.93;34.80
39301;BME280;25019;42.626;23.380;2023-05-23T14:19:15;94074.44;;;23.14;34.70
39301;BME280;25019;42.626;23.380;2023-05-23T14:21:41;93986.34;;;22.58;34.13
39301;BME280;25019;42.626;23.380;2023-05-23T14:24:07;94067.41;;;23.22;33.07
39301;BME280;25019;42.626;23.380;2023-05-23T14:26:32;94059.09;;;23.06;32.08
39301;BME280;25019;42.626;23.380;2023-05-23T14:28:58;94012.00;;;22.86;31.73
39301;BME280;25019;42.626;23.380;2023-05-23T14:31:24;93957.72;;;22.57;32.26
39301;BME280;25019;42.626;23.380;2023-05-23T14:33:50;94054.56;;;22.98;33.91
39301;BME280;25019;42.626;23.380;2023-05-23T14:36:15;94039.81;;;22.62;33.92
39301;BME280;25019;42.626;23.380;2023-05-23T14:38:41;94059.38;;;22.80;33.10
39301;BME280;25019;42.626;23.380;2023-05-23T14:41:10;94063.09;;;22.87;33.86
39301;BME280;25019;42.626;23.380;2023-05-23T14:43:35;94059.56;;;22.74;33.82
39301;BME280;25019;42.626;23.380;2023-05-23T14:46:01;93988.06;;;22.29;34.46
39301;BME280;25019;42.626;23.380;2023-05-23T14:48:27;93985.69;;;22.28;33.25
39301;BME280;25019;42.626;23.380;2023-05-23T14:50:52;94032.28;;;22.67;32.79
39301;BME280;25019;42.626;23.380;2023-05-23T14:53:18;94065.38;;;22.85;32.35
39301;BME280;25019;42.626;23.380;2023-05-23T14:55:46;93985.22;;;22.26;31.23
39301;BME280;25019;42.626;23.380;2023-05-23T14:58:12;94043.44;;;22.66;31.83
39301;BME280;25019;42.626;23.380;2023-05-23T15:00:38;94043.69;;;22.73;32.10
39301;BME280;25019;42.626;23.380;2023-05-23T15:03:05;94047.06;;;22.70;31.71
39301;BME280;25019;42.626;23.380;2023-05-23T15:05:30;94047.59;;;22.63;31.27
39301;BME280;25019;42.626;23.380;2023-05-23T15:07:56;94052.09;;;22.59;30.13
39301;BME280;25019;42.626;23.380;2023-05-23T15:10:21;94040.81;;;22.57;29.78
39301;BME280;25019;42.626;23.380;2023-05-23T15:12:47;94023.53;;;22.49;30.24
39301;BME280;25019;42.626;23.380;2023-05-23T15:15:13;93939.63;;;21.82;30.87
39301;BME280;25019;42.626;23.380;2023-05-23T15:17:40;93978.66;;;22.14;30.98
39301;BME280;25019;42.626;23.380;2023-05-23T15:41:10;94033.13;;;22.25;30.24
39301;BME280;25019;42.626;23.380;2023-05-23T15:43:36;93912.53;;;21.48;30.93
39301;BME280;25019;42.626;23.380;2023-05-23T15:46:01;93929.97;;;21.51;30.61
39301;BME280;25019;42.626;23.380;2023-05-23T15:48:27;93875.91;;;21.17;31.77
39301;BME280;25019;42.626;23.380;2023-05-23T15:50:53;93964.88;;;21.86;30.59
39301;BME280;25019;42.626;23.380;2023-05-23T15:53:19;94023.53;;;22.28;30.52
39301;BME280;25019;42.626;23.380;2023-05-23T15:55:45;94021.91;;;22.14;30.50
39301;BME280;25019;42.626;23.380;2023-05-23T15:58:11;94019.53;;;22.13;30.88
39301;BME280;25019;42.626;23.380;2023-05-23T16:00:37;93952.47;;;21.64;30.60
39301;BME280;25019;42.626;23.380;2023-05-23T16:03:03;94026.53;;;22.14;30.84
39301;BME280;25019;42.626;23.380;2023-05-23T16:05:28;94019.59;;;22.04;30.85
39301;BME280;25019;42.626;23.380;2023-05-23T16:07:54;94025.66;;;22.01;30.92
39301;BME280;25019;42.626;23.380;2023-05-23T16:10:20;94037.59;;;22.00;30.94
39301;BME280;25019;42.626;23.380;2023-05-23T16:12:45;94021.38;;;21.79;30.85
39301;BME280;25019;42.626;23.380;2023-05-23T16:15:11;94021.34;;;21.58;32.26
39301;BME280;25019;42.626;23.380;2023-05-23T16:17:37;94043.41;;;21.60;32.85
39301;BME280;25019;42.626;23.380;2023-05-23T16:20:02;94039.63;;;21.52;32.29
39301;BME280;25019;42.626;23.380;2023-05-23T16:22:29;94049.84;;;21.46;32.74
39301;BME280;25019;42.626;23.380;2023-05-23T16:24:55;93965.31;;;20.86;33.41
39301;BME280;25019;42.626;23.380;2023-05-23T16:27:22;94048.81;;;21.30;33.48
39301;BME280;25019;42.626;23.380;2023-05-23T16:29:48;93956.03;;;20.57;34.15
39301;BME280;25019;42.626;23.380;2023-05-23T16:32:14;94044.28;;;21.13;34.88
39301;BME280;25019;42.626;23.380;2023-05-23T16:34:42;94069.03;;;21.15;34.71
39301;BME280;25019;42.626;23.380;2023-05-23T16:37:07;94058.59;;;21.04;33.85
39301;BME280;25019;42.626;23.380;2023-05-23T16:39:33;94019.59;;;20.84;33.88
39301;BME280;25019;42.626;23.380;2023-05-23T16:41:58;94071.09;;;21.09;33.78
39301;BME280;25019;42.626;23.380;2023-05-23T16:44:24;94042.16;;;20.79;34.57
39301;BME280;25019;42.626;23.380;2023-05-23T16:46:50;94044.22;;;20.83;34.02
39301;BME280;25019;42.626;23.380;2023-05-23T16:49:16;93915.00;;;20.33;33.34
39301;BME280;25019;42.626;23.380;2023-05-23T16:51:42;94066.66;;;22.67;32.30
39301;BME280;25019;42.626;23.380;2023-05-23T16:54:07;94069.44;;;23.50;30.73
39301;BME280;25019;42.626;23.380;2023-05-23T16:56:33;94061.50;;;23.57;30.62
39301;BME280;25019;42.626;23.380;2023-05-23T16:58:59;94070.59;;;23.15;31.81
39301;BME280;25019;42.626;23.380;2023-05-23T17:01:25;94070.56;;;22.57;32.44
39301;BME280;25019;42.626;23.380;2023-05-23T17:03:50;93996.91;;;21.75;32.99
39301;BME280;25019;42.626;23.380;2023-05-23T17:06:16;94067.94;;;21.84;33.42
39301;BME280;25019;42.626;23.380;2023-05-23T17:08:42;94041.31;;;21.35;34.10
39301;BME280;25019;42.626;23.380;2023-05-23T17:11:07;94060.13;;;21.14;35.19
39301;BME280;25019;42.626;23.380;2023-05-23T17:13:33;94021.38;;;20.62;35.33
39301;BME280;25019;42.626;23.380;2023-05-23T17:15:59;94076.91;;;20.81;35.93
39301;BME280;25019;42.626;23.380;2023-05-23T17:18:24;94068.03;;;20.54;35.95
39301;BME280;25019;42.626;23.380;2023-05-23T17:20:50;94074.88;;;20.43;37.18
39301;BME280;25019;42.626;23.380;2023-05-23T17:23:15;94063.63;;;20.14;37.82
39301;BME280;25019;42.626;23.380;2023-05-23T17:25:43;94056.50;;;19.92;38.59
39301;BME280;25019;42.626;23.380;2023-05-23T17:28:09;94089.13;;;19.99;38.79
39301;BME280;25019;42.626;23.380;2023-05-23T17:30:35;94081.28;;;19.80;39.26
39301;BME280;25019;42.626;23.380;2023-05-23T17:33:01;94052.13;;;19.56;39.50
39301;BME280;25019;42.626;23.380;2023-05-23T17:35:27;94092.69;;;19.68;39.88
39301;BME280;25019;42.626;23.380;2023-05-23T17:37:52;93983.28;;;18.83;40.30
39301;BME280;25019;42.626;23.380;2023-05-23T17:40:22;94089.16;;;19.50;40.36
39301;BME280;25019;42.626;23.380;2023-05-23T17:42:48;94094.50;;;19.41;40.49
39301;BME280;25019;42.626;23.380;2023-05-23T17:45:14;94082.25;;;19.26;41.07
39301;BME280;25019;42.626;23.380;2023-05-23T17:47:39;94092.53;;;19.24;42.27
39301;BME280;25019;42.626;23.380;2023-05-23T17:50:06;93936.88;;;18.05;43.77
39301;BME280;25019;42.626;23.380;2023-05-23T17:52:33;94093.69;;;19.00;44.22
39301;BME280;25019;42.626;23.380;2023-05-23T17:54:59;94099.81;;;18.92;45.11
39301;BME280;25019;42.626;23.380;2023-05-23T17:57:25;94110.22;;;18.85;46.53
39301;BME280;25019;42.626;23.380;2023-05-23T17:59:52;94072.34;;;18.50;47.34
39301;BME280;25019;42.626;23.380;2023-05-23T18:02:18;94040.53;;;18.20;48.56
39301;BME280;25019;42.626;23.380;2023-05-23T18:04:43;94115.41;;;18.59;49.37
39301;BME280;25019;42.626;23.380;2023-05-23T18:07:13;94105.16;;;18.38;50.22
39301;BME280;25019;42.626;23.380;2023-05-23T18:09:43;94030.56;;;17.84;49.91
39301;BME280;25019;42.626;23.380;2023-05-23T18:12:10;94110.16;;;18.31;49.86
39301;BME280;25019;42.626;23.380;2023-05-23T18:14:36;94044.19;;;17.74;50.25
39301;BME280;25019;42.626;23.380;2023-05-23T18:17:04;94130.19;;;18.24;50.90
39301;BME280;25019;42.626;23.380;2023-05-23T18:19:29;94100.38;;;17.98;51.17
39301;BME280;25019;42.626;23.380;2023-05-23T18:21:55;94033.41;;;17.51;51.84
39301;BME280;25019;42.626;23.380;2023-05-23T18:24:21;94072.81;;;17.56;51.23
39301;BME280;25019;42.626;23.380;2023-05-23T18:26:47;94066.72;;;17.50;51.25
39301;BME280;25019;42.626;23.380;2023-05-23T18:29:13;94138.78;;;17.85;51.23
39301;BME280;25019;42.626;23.380;2023-05-23T18:31:39;94075.59;;;17.22;51.67
39301;BME280;25019;42.626;23.380;2023-05-23T18:34:05;94013.63;;;16.77;51.97
39301;BME280;25019;42.626;23.380;2023-05-23T18:36:31;94055.25;;;16.88;52.31
39301;BME280;25019;42.626;23.380;2023-05-23T18:38:57;94043.94;;;16.77;52.81
39301;BME280;25019;42.626;23.380;2023-05-23T18:41:23;94136.00;;;17.20;52.95
39301;BME280;25019;42.626;23.380;2023-05-23T18:43:49;94165.63;;;17.29;53.17
39301;BME280;25019;42.626;23.380;2023-05-23T18:46:15;94166.00;;;17.08;55.31
39301;BME280;25019;42.626;23.380;2023-05-23T18:48:41;94173.84;;;17.04;55.87
39301;BME280;25019;42.626;23.380;2023-05-23T18:51:07;94152.84;;;16.73;56.60
39301;BME280;25019;42.626;23.380;2023-05-23T18:53:33;94168.44;;;16.71;58.16
39301;BME280;25019;42.626;23.380;2023-05-23T18:55:59;94030.19;;;15.61;59.03
39301;BME280;25019;42.626;23.380;2023-05-23T18:58:25;94043.06;;;15.58;59.51
39301;BME280;25019;42.626;23.380;2023-05-23T19:00:51;94178.66;;;16.31;60.77
39301;BME280;25019;42.626;23.380;2023-05-23T19:03:16;94124.25;;;15.73;60.28
39301;BME280;25019;42.626;23.380;2023-05-23T19:05:42;94081.91;;;15.32;60.68
39301;BME280;25019;42.626;23.380;2023-05-23T19:08:08;94190.66;;;15.95;61.38
39301;BME280;25019;42.626;23.380;2023-05-23T19:10:33;94201.47;;;15.85;62.51
39301;BME280;25019;42.626;23.380;2023-05-23T19:13:00;94198.50;;;15.62;63.05
39301;BME280;25019;42.626;23.380;2023-05-23T19:15:26;94221.81;;;15.62;63.48
39301;BME280;25019;42.626;23.380;2023-05-23T19:17:52;94121.09;;;14.93;64.35
39301;BME280;25019;42.626;23.380;2023-05-23T19:20:18;94156.53;;;15.09;64.28
39301;BME280;25019;42.626;23.380;2023-05-23T19:22:45;94199.63;;;15.32;64.59
39301;BME280;25019;42.626;23.380;2023-05-23T19:25:12;94233.69;;;15.50;64.45
39301;BME280;25019;42.626;23.380;2023-05-23T19:27:39;94220.53;;;15.30;64.96
39301;BME280;25019;42.626;23.380;2023-05-23T19:30:06;94242.09;;;15.38;65.26
39301;BME280;25019;42.626;23.380;2023-05-23T19:32:32;94197.72;;;15.08;65.43
39301;BME280;25019;42.626;23.380;2023-05-23T19:34:57;94250.47;;;15.32;65.47
39301;BME280;25019;42.626;23.380;2023-05-23T19:37:23;94164.94;;;14.62;66.42
39301;BME280;25019;42.626;23.380;2023-05-23T19:39:49;94242.09;;;15.09;66.82
39301;BME280;25019;42.626;23.380;2023-05-23T19:42:14;94217.41;;;14.88;67.17
39301;BME280;25019;42.626;23.380;2023-05-23T19:44:40;94227.03;;;14.89;67.29
39301;BME280;25019;42.626;23.380;2023-05-23T19:47:07;94256.09;;;14.95;67.30
39301;BME280;25019;42.626;23.380;2023-05-23T19:49:32;94168.03;;;14.35;67.42
39301;BME280;25019;42.626;23.380;2023-05-23T19:52:01;94166.00;;;14.21;67.75
39301;BME280;25019;42.626;23.380;2023-05-23T19:54:27;94253.59;;;14.75;67.66
39301;BME280;25019;42.626;23.380;2023-05-23T19:56:53;94260.53;;;14.76;67.74
39301;BME280;25019;42.626;23.380;2023-05-23T19:59:18;94260.81;;;14.74;67.63
39301;BME280;25019;42.626;23.380;2023-05-23T20:01:45;94180.44;;;14.20;68.09
39301;BME280;25019;42.626;23.380;2023-05-23T20:04:10;94153.81;;;14.00;68.48
39301;BME280;25019;42.626;23.380;2023-05-23T20:06:37;94252.34;;;14.51;69.24
39301;BME280;25019;42.626;23.380;2023-05-23T20:09:03;94268.09;;;14.58;69.29
39301;BME280;25019;42.626;23.380;2023-05-23T20:11:29;94262.50;;;14.54;70.10
39301;BME280;25019;42.626;23.380;2023-05-23T20:13:55;94148.31;;;13.81;70.25
39301;BME280;25019;42.626;23.380;2023-05-23T20:16:21;94264.41;;;14.49;70.75
39301;BME280;25019;42.626;23.380;2023-05-23T20:18:47;94253.19;;;14.47;70.93
39301;BME280;25019;42.626;23.380;2023-05-23T20:21:13;94250.53;;;14.42;70.90
39301;BME280;25019;42.626;23.380;2023-05-23T20:23:38;94232.19;;;14.24;71.06
39301;BME280;25019;42.626;23.380;2023-05-23T20:26:08;94241.78;;;14.31;72.54
39301;BME280;25019;42.626;23.380;2023-05-23T20:28:34;94246.91;;;14.27;72.66
39301;BME280;25019;42.626;23.380;2023-05-23T20:31:00;94134.06;;;13.45;72.86
39301;BME280;25019;42.626;23.380;2023-05-23T20:33:27;94252.28;;;14.17;73.98
39301;BME280;25019;42.626;23.380;2023-05-23T20:35:54;94239.25;;;14.05;74.69
39301;BME280;25019;42.626;23.380;2023-05-23T20:38:20;94195.31;;;13.76;74.83
39301;BME280;25019;42.626;23.380;2023-05-23T20:40:49;94117.06;;;13.10;75.43
39301;BME280;25019;42.626;23.380;2023-05-23T20:43:15;94255.84;;;13.91;75.89
39301;BME280;25019;42.626;23.380;2023-05-23T20:45:41;94236.13;;;13.77;75.59
39301;BME280;25019;42.626;23.380;2023-05-23T20:48:07;94207.38;;;13.58;75.68
39301;BME280;25019;42.626;23.380;2023-05-23T20:50:32;94258.00;;;13.84;75.98
39301;BME280;25019;42.626;23.380;2023-05-23T20:52:59;94188.75;;;13.43;76.06
39301;BME280;25019;42.626;23.380;2023-05-23T20:55:25;94255.88;;;13.86;76.18
39301;BME280;25019;42.626;23.380;2023-05-23T20:57:52;94248.16;;;13.80;75.92
39301;BME280;25019;42.626;23.380;2023-05-23T21:00:17;94191.69;;;13.46;75.84
39301;BME280;25019;42.626;23.380;2023-05-23T21:02:45;94174.63;;;13.27;75.91
39301;BME280;25019;42.626;23.380;2023-05-23T21:05:11;94239.63;;;13.72;75.97
39301;BME280;25019;42.626;23.380;2023-05-23T21:07:37;94261.50;;;13.74;75.78
39301;BME280;25019;42.626;23.380;2023-05-23T21:10:04;94260.44;;;13.70;76.01
39301;BME280;25019;42.626;23.380;2023-05-23T21:12:30;94259.09;;;13.68;75.99
39301;BME280;25019;42.626;23.380;2023-05-23T21:14:55;94259.41;;;13.66;76.25
39301;BME280;25019;42.626;23.380;2023-05-23T21:17:21;94196.22;;;13.15;76.06
39301;BME280;25019;42.626;23.380;2023-05-23T21:19:47;94083.59;;;12.47;76.46
39301;BME280;25019;42.626;23.380;2023-05-23T21:22:13;94263.41;;;13.58;76.77
39301;BME280;25019;42.626;23.380;2023-05-23T21:24:38;94259.16;;;13.57;76.96
39301;BME280;25019;42.626;23.380;2023-05-23T21:27:04;94266.09;;;13.53;77.56
39301;BME280;25019;42.626;23.380;2023-05-23T21:29:32;94249.03;;;13.44;77.92
39301;BME280;25019;42.626;23.380;2023-05-23T21:31:57;94169.63;;;12.79;78.38
39301;BME280;25019;42.626;23.380;2023-05-23T21:34:23;94198.16;;;12.88;79.08
39301;BME280;25019;42.626;23.380;2023-05-23T21:36:49;94275.66;;;13.39;79.86
39301;BME280;25019;42.626;23.380;2023-05-23T21:39:15;94284.25;;;13.36;80.10
39301;BME280;25019;42.626;23.380;2023-05-23T21:41:41;94207.19;;;12.72;81.11
39301;BME280;25019;42.626;23.380;2023-05-23T21:44:06;94282.63;;;13.14;81.97
39301;BME280;25019;42.626;23.380;2023-05-23T21:46:32;94277.84;;;12.95;83.11
39301;BME280;25019;42.626;23.380;2023-05-23T21:48:58;94256.22;;;12.76;83.91
39301;BME280;25019;42.626;23.380;2023-05-23T21:51:24;94249.81;;;12.62;84.83
39301;BME280;25019;42.626;23.380;2023-05-23T21:53:49;94267.94;;;12.65;85.89
39301;BME280;25019;42.626;23.380;2023-05-23T21:56:15;94167.66;;;11.96;85.96
39301;BME280;25019;42.626;23.380;2023-05-23T21:58:40;94283.94;;;12.65;86.25
39301;BME280;25019;42.626;23.380;2023-05-23T22:01:06;94264.19;;;12.50;86.85
39301;BME280;25019;42.626;23.380;2023-05-23T22:03:33;94292.97;;;12.58;86.75
39301;BME280;25019;42.626;23.380;2023-05-23T22:05:58;94267.34;;;12.37;87.46
39301;BME280;25019;42.626;23.380;2023-05-23T22:08:24;94274.28;;;12.43;87.36
39301;BME280;25019;42.626;23.380;2023-05-23T22:10:50;94276.38;;;12.31;87.39
39301;BME280;25019;42.626;23.380;2023-05-23T22:13:15;94297.19;;;12.49;87.57
39301;BME280;25019;42.626;23.380;2023-05-23T22:15:42;94206.72;;;11.86;88.12
39301;BME280;25019;42.626;23.380;2023-05-23T22:18:07;94293.72;;;12.38;88.60
39301;BME280;25019;42.626;23.380;2023-05-23T22:20:33;94297.97;;;12.39;89.41
39301;BME280;25019;42.626;23.380;2023-05-23T22:23:03;94260.34;;;12.15;89.43
39301;BME280;25019;42.626;23.380;2023-05-23T22:25:30;94246.47;;;12.03;90.51
39301;BME280;25019;42.626;23.380;2023-05-23T22:28:03;94284.06;;;12.17;91.03
39301;BME280;25019;42.626;23.380;2023-05-23T22:30:28;94270.47;;;12.08;91.05
39301;BME280;25019;42.626;23.380;2023-05-23T22:32:54;94274.22;;;12.12;91.37
39301;BME280;25019;42.626;23.380;2023-05-23T22:35:22;94272.84;;;12.09;92.10
39301;BME280;25019;42.626;23.380;2023-05-23T22:37:47;94280.03;;;12.09;92.88
39301;BME280;25019;42.626;23.380;2023-05-23T22:40:13;94276.03;;;12.06;93.28
39301;BME280;25019;42.626;23.380;2023-05-23T22:42:39;94164.72;;;11.29;94.48
39301;BME280;25019;42.626;23.380;2023-05-23T22:45:05;94235.63;;;11.61;95.93
39301;BME280;25019;42.626;23.380;2023-05-23T22:47:31;94254.88;;;11.79;96.57
39301;BME280;25019;42.626;23.380;2023-05-23T22:49:57;94200.41;;;11.38;97.18
39301;BME280;25019;42.626;23.380;2023-05-23T22:52:24;94272.97;;;11.87;98.93
39301;BME280;25019;42.626;23.380;2023-05-23T22:54:50;94277.50;;;11.81;100.00
39301;BME280;25019;42.626;23.380;2023-05-23T22:57:16;94205.38;;;11.24;100.00
39301;BME280;25019;42.626;23.380;2023-05-23T22:59:41;94258.81;;;11.66;100.00
39301;BME280;25019;42.626;23.380;2023-05-23T23:02:07;94186.41;;;11.11;100.00